createdAt,value
2022-12-09T00:00:45.680Z,-4.49
2022-12-09T00:01:45.664Z,-4.49
2022-12-09T00:02:45.922Z,-4.48
2022-12-09T00:03:45.786Z,-4.45
2022-12-09T00:04:45.899Z,-4.44
2022-12-09T00:05:45.601Z,-4.39
2022-12-09T00:06:45.625Z,-4.41
2022-12-09T00:07:45.608Z,-4.39
2022-12-09T00:08:45.832Z,-4.38
2022-12-09T00:09:45.847Z,-4.39
2022-12-09T00:10:45.585Z,-4.38
2022-12-09T00:11:45.764Z,-4.39
2022-12-09T00:12:45.515Z,-4.35
2022-12-09T00:13:45.527Z,-4.31
2022-12-09T00:14:45.563Z,-4.21
2022-12-09T00:15:45.550Z,-4.20
2022-12-09T00:16:45.515Z,-4.18
2022-12-09T00:17:45.692Z,-4.17
2022-12-09T00:18:45.452Z,-4.12
2022-12-09T00:19:45.442Z,-4.07
2022-12-09T00:20:45.440Z,-4.05
2022-12-09T00:21:45.451Z,-4.02
2022-12-09T00:22:45.479Z,-4.00
2022-12-09T00:23:45.430Z,-3.96
2022-12-09T00:24:45.516Z,-3.99
2022-12-09T00:25:45.467Z,-4.02
2022-12-09T00:26:45.364Z,-4.00
2022-12-09T00:27:45.387Z,-3.96
2022-12-09T00:28:45.341Z,-3.85
2022-12-09T00:29:45.544Z,-3.79
2022-12-09T00:30:45.348Z,-3.70
2022-12-09T00:31:45.369Z,-3.66
2022-12-09T00:32:45.510Z,-3.65
2022-12-09T00:33:45.415Z,-3.59
2022-12-09T00:34:45.300Z,-3.57
2022-12-09T00:35:45.432Z,-3.55
2022-12-09T00:36:45.499Z,-3.51
2022-12-09T00:37:45.260Z,-3.51
2022-12-09T00:38:45.225Z,-3.48
2022-12-09T00:39:45.391Z,-3.44
2022-12-09T00:40:45.406Z,-3.41
2022-12-09T00:41:45.268Z,-3.38
2022-12-09T00:42:45.248Z,-3.38
2022-12-09T00:43:45.346Z,-3.38
2022-12-09T00:44:45.282Z,-3.34
2022-12-09T00:45:45.399Z,-3.34
2022-12-09T00:46:45.360Z,-3.30
2022-12-09T00:47:45.273Z,-3.29
2022-12-09T00:48:45.442Z,-3.24
2022-12-09T00:49:45.308Z,-3.23
2022-12-09T00:50:45.201Z,-3.18
2022-12-09T00:51:45.121Z,-3.15
2022-12-09T00:52:45.096Z,-3.10
2022-12-09T00:53:45.315Z,-3.08
2022-12-09T00:54:45.168Z,-3.06
2022-12-09T00:55:45.326Z,-3.03
2022-12-09T00:56:45.282Z,-3.01
2022-12-09T00:57:45.094Z,-2.95
2022-12-09T00:58:45.252Z,-2.97
2022-12-09T00:59:45.076Z,-2.95
2022-12-09T01:00:45.138Z,-2.92
2022-12-09T01:01:45.256Z,-2.94
2022-12-09T01:02:45.126Z,-2.92
2022-12-09T01:03:45.150Z,-2.90
2022-12-09T01:04:45.278Z,-2.90
2022-12-09T01:05:44.993Z,-2.91
2022-12-09T01:06:45.104Z,-2.92
2022-12-09T01:07:44.984Z,-2.95
2022-12-09T01:08:45.872Z,-2.94
2022-12-09T01:09:45.181Z,-2.94
2022-12-09T01:10:44.908Z,-2.92
2022-12-09T01:11:44.972Z,-2.88
2022-12-09T01:12:45.016Z,-2.87
2022-12-09T01:13:45.122Z,-2.84
2022-12-09T01:14:45.057Z,-2.85
2022-12-09T01:15:44.952Z,-2.87
2022-12-09T01:16:45.011Z,-2.87
2022-12-09T01:17:44.921Z,-2.84
2022-12-09T01:18:45.037Z,-2.82
2022-12-09T01:19:44.816Z,-2.82
2022-12-09T01:20:44.986Z,-2.80
2022-12-09T01:21:44.963Z,-2.79
2022-12-09T01:22:44.786Z,-2.79
2022-12-09T01:23:44.782Z,-2.77
2022-12-09T01:24:44.799Z,-2.77
2022-12-09T01:25:44.925Z,-2.77
2022-12-09T01:26:45.068Z,-2.77
2022-12-09T01:27:44.861Z,-2.79
2022-12-09T01:28:44.999Z,-2.84
2022-12-09T01:29:44.955Z,-2.84
2022-12-09T01:30:44.809Z,-2.87
2022-12-09T01:31:45.117Z,-2.88
2022-12-09T01:32:44.823Z,-2.90
2022-12-09T01:33:44.754Z,-2.90
2022-12-09T01:34:44.687Z,-2.94
2022-12-09T01:35:44.762Z,-2.94
2022-12-09T01:36:44.754Z,-2.92
2022-12-09T01:37:44.933Z,-2.92
2022-12-09T01:38:44.818Z,-2.92
2022-12-09T01:39:44.590Z,-2.94
2022-12-09T01:40:44.841Z,-2.88
2022-12-09T01:41:44.705Z,-2.87
2022-12-09T01:42:44.921Z,-2.87
2022-12-09T01:43:44.712Z,-2.87
2022-12-09T01:44:44.549Z,-2.80
2022-12-09T01:45:44.811Z,-2.79
2022-12-09T01:46:44.606Z,-2.76
2022-12-09T01:47:44.732Z,-2.77
2022-12-09T01:48:44.756Z,-2.76
2022-12-09T01:49:44.502Z,-2.77
2022-12-09T01:50:44.628Z,-2.73
2022-12-09T01:51:44.604Z,-2.74
2022-12-09T01:52:44.714Z,-2.73
2022-12-09T01:53:44.609Z,-2.73
2022-12-09T01:54:44.726Z,-2.73
2022-12-09T01:55:44.556Z,-2.74
2022-12-09T01:56:44.420Z,-2.74
2022-12-09T01:57:44.412Z,-2.76
2022-12-09T01:58:44.404Z,-2.76
2022-12-09T01:59:44.742Z,-2.74
2022-12-09T02:00:44.566Z,-2.72
2022-12-09T02:01:44.493Z,-2.69
2022-12-09T02:02:44.625Z,-2.67
2022-12-09T02:03:44.788Z,-2.63
2022-12-09T02:04:44.450Z,-2.61
2022-12-09T02:05:44.559Z,-2.61
2022-12-09T02:06:44.551Z,-2.63
2022-12-09T02:07:44.434Z,-2.61
2022-12-09T02:08:44.387Z,-2.61
2022-12-09T02:09:44.462Z,-2.61
2022-12-09T02:10:44.587Z,-2.59
2022-12-09T02:11:44.268Z,-2.54
2022-12-09T02:12:44.250Z,-2.51
2022-12-09T02:13:44.481Z,-2.49
2022-12-09T02:14:44.277Z,-2.49
2022-12-09T02:15:44.510Z,-2.46
2022-12-09T02:16:44.276Z,-2.46
2022-12-09T02:17:44.607Z,-2.43
2022-12-09T02:18:44.418Z,-2.41
2022-12-09T02:19:44.505Z,-2.38
2022-12-09T02:20:44.208Z,-2.37
2022-12-09T02:21:44.162Z,-2.29
2022-12-09T02:22:44.193Z,-2.26
2022-12-09T02:23:44.196Z,-2.27
2022-12-09T02:24:44.430Z,-2.24
2022-12-09T02:25:44.148Z,-2.21
2022-12-09T02:26:44.123Z,-2.19
2022-12-09T02:27:44.108Z,-2.18
2022-12-09T02:28:44.187Z,-2.18
2022-12-09T02:29:44.098Z,-2.24
2022-12-09T02:30:44.232Z,-2.26
2022-12-09T02:31:44.172Z,-2.21
2022-12-09T02:32:44.140Z,-2.18
2022-12-09T02:33:44.364Z,-2.21
2022-12-09T02:34:44.267Z,-2.19
2022-12-09T02:35:44.066Z,-2.19
2022-12-09T02:36:44.177Z,-2.21
2022-12-09T02:37:44.005Z,-2.15
2022-12-09T02:38:44.425Z,-2.15
2022-12-09T02:39:43.966Z,-2.12
2022-12-09T02:40:43.946Z,-2.11
2022-12-09T02:41:43.990Z,-2.08
2022-12-09T02:42:44.232Z,-2.11
2022-12-09T02:43:49.673Z,-2.08
2022-12-09T02:44:45.185Z,-2.06
2022-12-09T02:45:44.133Z,-2.03
2022-12-09T02:46:44.345Z,-2.03
2022-12-09T02:47:44.068Z,-2.04
2022-12-09T02:48:44.010Z,-2.04
2022-12-09T02:49:43.856Z,-2.03
2022-12-09T02:50:43.876Z,-2.03
2022-12-09T02:51:44.203Z,-2.01
2022-12-09T02:52:43.943Z,-2.00
2022-12-09T02:53:43.951Z,-2.01
2022-12-09T02:54:43.832Z,-2.03
2022-12-09T02:55:44.060Z,-2.06
2022-12-09T02:56:44.040Z,-2.03
2022-12-09T02:57:44.096Z,-2.03
2022-12-09T02:58:43.759Z,-2.04
2022-12-09T02:59:43.759Z,-2.06
2022-12-09T03:00:44.146Z,-2.08
2022-12-09T03:01:43.940Z,-2.08
2022-12-09T03:02:43.972Z,-2.08
2022-12-09T03:03:44.290Z,-2.06
2022-12-09T03:04:43.836Z,-2.01
2022-12-09T03:05:43.682Z,-2.01
2022-12-09T03:06:43.794Z,-1.96
2022-12-09T03:07:44.047Z,-1.97
2022-12-09T03:08:43.961Z,-1.97
2022-12-09T03:09:43.814Z,-1.98
2022-12-09T03:10:43.648Z,-1.98
2022-12-09T03:11:43.842Z,-1.94
2022-12-09T03:12:43.880Z,-1.97
2022-12-09T03:13:43.859Z,-2.00
2022-12-09T03:14:43.801Z,-2.01
2022-12-09T03:15:43.605Z,-2.03
2022-12-09T03:16:43.592Z,-2.03
2022-12-09T03:17:43.661Z,-2.00
2022-12-09T03:18:43.595Z,-1.97
2022-12-09T03:19:43.704Z,-1.94
2022-12-09T03:20:43.548Z,-1.93
2022-12-09T03:21:43.527Z,-1.88
2022-12-09T03:22:43.541Z,-1.83
2022-12-09T03:23:43.832Z,-1.80
2022-12-09T03:24:43.839Z,-1.78
2022-12-09T03:25:43.696Z,-1.78
2022-12-09T03:26:43.704Z,-1.75
2022-12-09T03:27:43.610Z,-1.76
2022-12-09T03:28:43.657Z,-1.76
2022-12-09T03:29:43.471Z,-1.70
2022-12-09T03:30:43.413Z,-1.72
2022-12-09T03:31:43.649Z,-1.69
2022-12-09T03:32:43.671Z,-1.70
2022-12-09T03:33:43.617Z,-1.70
2022-12-09T03:34:43.712Z,-1.70
2022-12-09T03:35:43.465Z,-1.70
2022-12-09T03:36:43.383Z,-1.70
2022-12-09T03:37:43.366Z,-1.75
2022-12-09T03:38:43.346Z,-1.75
2022-12-09T03:39:43.336Z,-1.75
2022-12-09T03:40:43.455Z,-1.73
2022-12-09T03:41:43.379Z,-1.75
2022-12-09T03:42:43.608Z,-1.75
2022-12-09T03:43:43.332Z,-1.75
2022-12-09T03:44:43.291Z,-1.75
2022-12-09T03:45:43.327Z,-1.73
2022-12-09T03:46:43.495Z,-1.73
2022-12-09T03:47:43.728Z,-1.73
2022-12-09T03:48:43.552Z,-1.72
2022-12-09T03:49:43.520Z,-1.72
2022-12-09T03:50:43.270Z,-1.67
2022-12-09T03:51:43.239Z,-1.65
2022-12-09T03:52:43.273Z,-1.67
2022-12-09T03:53:43.204Z,-1.65
2022-12-09T03:54:43.385Z,-1.64
2022-12-09T03:55:43.237Z,-1.67
2022-12-09T03:56:43.485Z,-1.69
2022-12-09T03:57:43.140Z,-1.65
2022-12-09T03:58:43.441Z,-1.64
2022-12-09T03:59:43.156Z,-1.62
2022-12-09T04:00:43.222Z,-1.64
2022-12-09T04:01:43.176Z,-1.62
2022-12-09T04:02:43.577Z,-1.62
2022-12-09T04:03:43.278Z,-1.61
2022-12-09T04:04:43.512Z,-1.57
2022-12-09T04:05:43.300Z,-1.59
2022-12-09T04:06:43.039Z,-1.61
2022-12-09T04:07:43.419Z,-1.59
2022-12-09T04:08:43.364Z,-1.59
2022-12-09T04:09:43.196Z,-1.59
2022-12-09T04:10:43.047Z,-1.58
2022-12-09T04:11:43.035Z,-1.55
2022-12-09T04:12:42.972Z,-1.57
2022-12-09T04:13:43.000Z,-1.55
2022-12-09T04:14:43.249Z,-1.54
2022-12-09T04:15:43.034Z,-1.54
2022-12-09T04:16:43.002Z,-1.58
2022-12-09T04:17:43.220Z,-1.57
2022-12-09T04:18:43.338Z,-1.61
2022-12-09T04:19:43.287Z,-1.61
2022-12-09T04:20:42.906Z,-1.61
2022-12-09T04:21:43.298Z,-1.62
2022-12-09T04:22:43.254Z,-1.61
2022-12-09T04:23:43.595Z,-1.59
2022-12-09T04:24:42.890Z,-1.59
2022-12-09T04:25:43.197Z,-1.55
2022-12-09T04:26:43.173Z,-1.54
2022-12-09T04:27:43.001Z,-1.55
2022-12-09T04:28:42.811Z,-1.54
2022-12-09T04:29:42.868Z,-1.51
2022-12-09T04:30:42.846Z,-1.46
2022-12-09T04:31:43.102Z,-1.49
2022-12-09T04:32:43.226Z,-1.47
2022-12-09T04:33:42.792Z,-1.51
2022-12-09T04:34:43.056Z,-1.51
2022-12-09T04:35:43.080Z,-1.51
2022-12-09T04:36:42.866Z,-1.54
2022-12-09T04:37:42.748Z,-1.54
2022-12-09T04:38:42.924Z,-1.55
2022-12-09T04:39:42.723Z,-1.52
2022-12-09T04:40:42.855Z,-1.51
2022-12-09T04:41:42.677Z,-1.49
2022-12-09T04:42:43.012Z,-1.44
2022-12-09T04:43:42.753Z,-1.43
2022-12-09T04:44:42.631Z,-1.43
2022-12-09T04:45:42.950Z,-1.41
2022-12-09T04:46:42.649Z,-1.40
2022-12-09T04:47:42.904Z,-1.41
2022-12-09T04:48:42.697Z,-1.41
2022-12-09T04:49:42.815Z,-1.46
2022-12-09T04:50:42.560Z,-1.40
2022-12-09T04:51:42.888Z,-1.41
2022-12-09T04:52:44.613Z,-1.39
2022-12-09T04:53:43.464Z,-1.39
2022-12-09T04:54:42.559Z,-1.39
2022-12-09T04:55:42.819Z,-1.44
2022-12-09T04:56:42.627Z,-1.44
2022-12-09T04:57:42.528Z,-1.46
2022-12-09T04:58:42.487Z,-1.52
2022-12-09T04:59:42.749Z,-1.51
2022-12-09T05:00:42.671Z,-1.47
2022-12-09T05:01:42.941Z,-1.46
2022-12-09T05:02:42.584Z,-1.41
2022-12-09T05:03:42.802Z,-1.40
2022-12-09T05:04:43.040Z,-1.37
2022-12-09T05:05:42.557Z,-1.37
2022-12-09T05:06:42.572Z,-1.39
2022-12-09T05:07:42.606Z,-1.40
2022-12-09T05:08:42.539Z,-1.40
2022-12-09T05:09:42.446Z,-1.40
2022-12-09T05:10:42.503Z,-1.43
2022-12-09T05:11:42.669Z,-1.43
2022-12-09T05:12:42.651Z,-1.44
2022-12-09T05:13:42.585Z,-1.43
2022-12-09T05:14:42.302Z,-1.41
2022-12-09T05:15:42.424Z,-1.40
2022-12-09T05:16:42.718Z,-1.40
2022-12-09T05:17:42.417Z,-1.39
2022-12-09T05:18:42.463Z,-1.39
2022-12-09T05:19:42.597Z,-1.34
2022-12-09T05:20:42.367Z,-1.37
2022-12-09T05:21:42.286Z,-1.36
2022-12-09T05:22:42.378Z,-1.36
2022-12-09T05:23:42.362Z,-1.33
2022-12-09T05:24:42.256Z,-1.36
2022-12-09T05:25:42.219Z,-1.33
2022-12-09T05:26:42.330Z,-1.34
2022-12-09T05:27:42.329Z,-1.33
2022-12-09T05:28:42.368Z,-1.29
2022-12-09T05:29:42.519Z,-1.26
2022-12-09T05:30:42.330Z,-1.25
2022-12-09T05:31:42.552Z,-1.23
2022-12-09T05:32:42.232Z,-1.22
2022-12-09T05:33:42.336Z,-1.16
2022-12-09T05:34:42.659Z,-1.15
2022-12-09T05:35:50.819Z,-1.15
2022-12-09T05:36:43.267Z,-1.15
2022-12-09T05:37:42.337Z,-1.10
2022-12-09T05:38:42.347Z,-1.10
2022-12-09T05:39:42.426Z,-1.10
2022-12-09T05:40:42.077Z,-1.07
2022-12-09T05:41:42.266Z,-1.08
2022-12-09T05:42:42.340Z,-1.05
2022-12-09T05:43:42.299Z,-1.08
2022-12-09T05:44:42.301Z,-1.07
2022-12-09T05:45:42.091Z,-1.05
2022-12-09T05:46:42.065Z,-1.04
2022-12-09T05:47:42.002Z,-1.05
2022-12-09T05:48:42.546Z,-1.05
2022-12-09T05:49:42.383Z,-1.07
2022-12-09T05:50:42.308Z,-1.07
2022-12-09T05:51:42.047Z,-1.04
2022-12-09T05:52:42.128Z,-1.03
2022-12-09T05:53:42.176Z,-1.01
2022-12-09T05:54:42.444Z,-1.03
2022-12-09T05:55:42.164Z,-1.01
2022-12-09T05:56:47.876Z,-1.01
2022-12-09T05:57:43.206Z,-0.98
2022-12-09T05:58:42.169Z,-0.98
2022-12-09T05:59:42.046Z,-0.95
2022-12-09T06:00:41.940Z,-0.98
2022-12-09T06:01:42.116Z,-1.00
2022-12-09T06:02:42.054Z,-0.98
2022-12-09T06:03:42.177Z,-0.98
2022-12-09T06:04:42.055Z,-0.95
2022-12-09T06:05:42.322Z,-0.94
2022-12-09T06:06:42.414Z,-0.92
2022-12-09T06:07:42.033Z,-0.94
2022-12-09T06:08:41.973Z,-0.94
2022-12-09T06:09:41.977Z,-0.92
2022-12-09T06:10:42.317Z,-0.92
2022-12-09T06:11:41.874Z,-0.92
2022-12-09T06:12:41.854Z,-0.92
2022-12-09T06:13:42.185Z,-0.92
2022-12-09T06:14:41.673Z,-0.94
2022-12-09T06:15:41.973Z,-0.92
2022-12-09T06:16:41.783Z,-0.90
2022-12-09T06:17:41.866Z,-0.89
2022-12-09T06:18:41.779Z,-0.90
2022-12-09T06:19:41.727Z,-0.89
2022-12-09T06:20:41.745Z,-0.90
2022-12-09T06:21:41.720Z,-0.90
2022-12-09T06:22:41.876Z,-0.86
2022-12-09T06:23:41.679Z,-0.89
2022-12-09T06:24:41.646Z,-0.92
2022-12-09T06:25:41.707Z,-0.90
2022-12-09T06:26:41.786Z,-0.90
2022-12-09T06:27:41.740Z,-0.90
2022-12-09T06:28:41.704Z,-0.92
2022-12-09T06:29:41.867Z,-0.94
2022-12-09T06:30:41.511Z,-0.94
2022-12-09T06:31:41.543Z,-0.94
2022-12-09T06:32:41.649Z,-0.95
2022-12-09T06:33:58.458Z,-0.94
2022-12-09T06:34:42.543Z,-0.95
2022-12-09T06:35:41.726Z,-0.95
2022-12-09T06:36:41.663Z,-0.94
2022-12-09T06:37:41.669Z,-0.94
2022-12-09T06:38:41.915Z,-0.92
2022-12-09T06:39:41.420Z,-0.89
2022-12-09T06:40:41.469Z,-0.86
2022-12-09T06:41:41.557Z,-0.86
2022-12-09T06:42:41.428Z,-0.89
2022-12-09T06:43:41.426Z,-0.86
2022-12-09T06:44:41.564Z,-0.89
2022-12-09T06:45:41.748Z,-0.85
2022-12-09T06:46:41.446Z,-0.82
2022-12-09T06:47:41.417Z,-0.81
2022-12-09T06:48:41.800Z,-0.73
2022-12-09T06:49:41.525Z,-0.73
2022-12-09T06:50:41.598Z,-0.71
2022-12-09T06:51:41.612Z,-0.73
2022-12-09T06:52:41.503Z,-0.73
2022-12-09T06:53:41.525Z,-0.75
2022-12-09T06:54:41.400Z,-0.76
2022-12-09T06:55:41.589Z,-0.76
2022-12-09T06:56:41.255Z,-0.76
2022-12-09T06:57:41.392Z,-0.81
2022-12-09T06:58:41.448Z,-0.81
2022-12-09T06:59:41.565Z,-0.79
2022-12-09T07:00:41.416Z,-0.79
2022-12-09T07:01:48.964Z,-0.81
2022-12-09T07:02:41.731Z,-0.79
2022-12-09T07:03:41.374Z,-0.81
2022-12-09T07:04:41.443Z,-0.81
2022-12-09T07:05:41.444Z,-0.82
2022-12-09T07:06:41.165Z,-0.84
2022-12-09T07:07:41.616Z,-0.86
2022-12-09T07:08:41.253Z,-0.89
2022-12-09T07:09:41.228Z,-0.89
2022-12-09T07:10:41.424Z,-0.95
2022-12-09T07:11:41.062Z,-0.98
2022-12-09T07:12:41.271Z,-1.00
2022-12-09T07:13:41.210Z,-0.98
2022-12-09T07:14:41.246Z,-0.98
2022-12-09T07:15:41.019Z,-0.98
2022-12-09T07:16:41.459Z,-1.00
2022-12-09T07:17:41.410Z,-1.00
2022-12-09T07:18:41.391Z,-0.98
2022-12-09T07:19:41.068Z,-0.98
2022-12-09T07:20:41.040Z,-0.97
2022-12-09T07:21:41.245Z,-0.97
2022-12-09T07:22:40.959Z,-0.97
2022-12-09T07:23:40.951Z,-0.95
2022-12-09T07:24:41.271Z,-0.94
2022-12-09T07:25:41.323Z,-0.94
2022-12-09T07:26:41.340Z,-0.94
2022-12-09T07:27:41.106Z,-0.90
2022-12-09T07:28:41.263Z,-0.85
2022-12-09T07:29:40.886Z,-0.85
2022-12-09T07:30:40.947Z,-0.84
2022-12-09T07:31:41.327Z,-0.82
2022-12-09T07:32:41.339Z,-0.82
2022-12-09T07:33:41.347Z,-0.78
2022-12-09T07:34:41.321Z,-0.78
2022-12-09T07:35:40.912Z,-0.76
2022-12-09T07:36:40.840Z,-0.75
2022-12-09T07:37:41.250Z,-0.73
2022-12-09T07:38:41.013Z,-0.70
2022-12-09T07:39:40.763Z,-0.70
2022-12-09T07:40:41.154Z,-0.70
2022-12-09T07:41:40.803Z,-0.73
2022-12-09T07:42:41.058Z,-0.73
2022-12-09T07:43:41.006Z,-0.73
2022-12-09T07:44:40.760Z,-0.71
2022-12-09T07:45:40.977Z,-0.71
2022-12-09T07:46:41.032Z,-0.71
2022-12-09T07:47:40.875Z,-0.71
2022-12-09T07:48:40.808Z,-0.71
2022-12-09T07:49:40.840Z,-0.71
2022-12-09T07:50:40.766Z,-0.73
2022-12-09T07:51:40.885Z,-0.76
2022-12-09T07:52:40.971Z,-0.76
2022-12-09T07:53:40.694Z,-0.78
2022-12-09T07:54:40.687Z,-0.79
2022-12-09T07:55:40.715Z,-0.81
2022-12-09T07:56:40.830Z,-0.82
2022-12-09T07:57:40.643Z,-0.81
2022-12-09T07:58:41.021Z,-0.84
2022-12-09T07:59:40.869Z,-0.85
2022-12-09T08:00:40.918Z,-0.86
2022-12-09T08:01:40.823Z,-0.85
2022-12-09T08:02:40.908Z,-0.82
2022-12-09T08:03:40.957Z,-0.81
2022-12-09T08:04:40.897Z,-0.78
2022-12-09T08:05:40.623Z,-0.75
2022-12-09T08:06:40.684Z,-0.75
2022-12-09T08:07:44.101Z,-0.75
2022-12-09T08:08:41.105Z,-0.78
2022-12-09T08:09:40.593Z,-0.76
2022-12-09T08:10:40.847Z,-0.76
2022-12-09T08:11:40.917Z,-0.75
2022-12-09T08:12:40.723Z,-0.73
2022-12-09T08:13:40.523Z,-0.71
2022-12-09T08:14:40.464Z,-0.71
2022-12-09T08:15:40.701Z,-0.68
2022-12-09T08:16:40.796Z,-0.67
2022-12-09T08:17:40.544Z,-0.67
2022-12-09T08:18:40.653Z,-0.64
2022-12-09T08:19:40.591Z,-0.64
2022-12-09T08:20:40.345Z,-0.63
2022-12-09T08:21:40.732Z,-0.60
2022-12-09T08:22:40.549Z,-0.61
2022-12-09T08:23:40.503Z,-0.57
2022-12-09T08:24:40.898Z,-0.58
2022-12-09T08:25:40.360Z,-0.55
2022-12-09T08:26:40.504Z,-0.52
2022-12-09T08:27:40.263Z,-0.53
2022-12-09T08:28:40.459Z,-0.50
2022-12-09T08:29:40.372Z,-0.49
2022-12-09T08:30:40.480Z,-0.46
2022-12-09T08:31:41.925Z,-0.45
2022-12-09T08:32:40.299Z,-0.40
2022-12-09T08:33:40.709Z,-0.39
2022-12-09T08:34:40.363Z,-0.39
2022-12-09T08:35:40.461Z,-0.39
2022-12-09T08:36:40.684Z,-0.39
2022-12-09T08:37:40.186Z,-0.39
2022-12-09T08:38:40.218Z,-0.38
2022-12-09T08:39:40.618Z,-0.32
2022-12-09T08:40:40.193Z,-0.34
2022-12-09T08:41:40.449Z,-0.34
2022-12-09T08:42:40.543Z,-0.34
2022-12-09T08:43:40.199Z,-0.34
2022-12-09T08:44:40.125Z,-0.34
2022-12-09T08:45:40.208Z,-0.34
2022-12-09T08:46:40.365Z,-0.34
2022-12-09T08:47:40.290Z,-0.34
2022-12-09T08:48:40.703Z,-0.34
2022-12-09T08:49:40.323Z,-0.32
2022-12-09T08:50:40.146Z,-0.34
2022-12-09T08:51:40.471Z,-0.35
2022-12-09T08:52:40.913Z,-0.39
2022-12-09T08:53:40.294Z,-0.39
2022-12-09T08:54:40.095Z,-0.35
2022-12-09T08:55:40.197Z,-0.34
2022-12-09T08:56:40.248Z,-0.31
2022-12-09T08:57:40.443Z,-0.31
2022-12-09T08:58:40.305Z,-0.31
2022-12-09T08:59:45.057Z,-0.27
2022-12-09T09:00:41.160Z,-0.27
2022-12-09T09:01:39.967Z,-0.25
2022-12-09T09:02:40.282Z,-0.25
2022-12-09T09:03:40.140Z,-0.24
2022-12-09T09:04:40.245Z,-0.22
2022-12-09T09:05:40.374Z,-0.21
2022-12-09T09:06:40.505Z,-0.21
2022-12-09T09:07:39.942Z,-0.20
2022-12-09T09:08:39.836Z,-0.20
2022-12-09T09:09:40.333Z,-0.20
2022-12-09T09:10:39.975Z,-0.17
2022-12-09T09:11:40.439Z,-0.16
2022-12-09T09:12:43.549Z,-0.14
2022-12-09T09:13:40.011Z,-0.13
2022-12-09T09:14:39.762Z,-0.13
2022-12-09T09:15:39.901Z,-0.13
2022-12-09T09:16:39.980Z,-0.13
2022-12-09T09:17:40.262Z,-0.13
2022-12-09T09:18:40.158Z,-0.16
2022-12-09T09:19:40.075Z,-0.17
2022-12-09T09:20:39.729Z,-0.17
2022-12-09T09:21:40.145Z,-0.17
2022-12-09T09:22:39.706Z,-0.20
2022-12-09T09:23:40.090Z,-0.17
2022-12-09T09:24:39.739Z,-0.14
2022-12-09T09:25:40.125Z,-0.13
2022-12-09T09:26:40.006Z,-0.10
2022-12-09T09:27:39.683Z,-0.11
2022-12-09T09:28:39.988Z,-0.09
2022-12-09T09:29:39.769Z,-0.07
2022-12-09T09:30:39.963Z,-0.06
2022-12-09T09:31:39.936Z,-0.10
2022-12-09T09:32:39.766Z,-0.10
2022-12-09T09:33:39.770Z,-0.09
2022-12-09T09:34:40.102Z,-0.06
2022-12-09T09:35:39.663Z,-0.04
2022-12-09T09:36:39.702Z,-0.03
2022-12-09T09:37:39.686Z,-0.01
2022-12-09T09:38:39.572Z,-0.01
2022-12-09T09:39:39.953Z,0.00
2022-12-09T09:40:39.480Z,0.04
2022-12-09T09:41:39.553Z,0.02
2022-12-09T09:42:39.742Z,-0.04
2022-12-09T09:43:39.621Z,0.00
2022-12-09T09:44:39.515Z,-0.01
2022-12-09T09:45:39.821Z,0.00
2022-12-09T09:46:39.889Z,0.04
2022-12-09T09:47:39.926Z,0.04
2022-12-09T09:48:39.801Z,0.05
2022-12-09T09:49:39.841Z,0.05
2022-12-09T09:50:39.638Z,0.07
2022-12-09T09:51:39.430Z,0.09
2022-12-09T09:52:39.501Z,0.08
2022-12-09T09:53:39.702Z,0.11
2022-12-09T09:54:39.505Z,0.09
2022-12-09T09:55:39.474Z,0.09
2022-12-09T09:56:39.721Z,0.11
2022-12-09T09:57:39.738Z,0.09
2022-12-09T09:58:39.810Z,0.07
2022-12-09T09:59:39.444Z,0.04
2022-12-09T10:00:39.701Z,0.04
2022-12-09T10:01:39.670Z,0.00
2022-12-09T10:02:39.883Z,0.00
2022-12-09T10:03:40.793Z,0.00
2022-12-09T10:04:39.584Z,0.02
2022-12-09T10:05:39.420Z,0.04
2022-12-09T10:06:39.468Z,0.04
2022-12-09T10:07:39.738Z,0.00
2022-12-09T10:08:39.738Z,0.00
2022-12-09T10:09:39.538Z,0.02
2022-12-09T10:10:39.430Z,0.05
2022-12-09T10:11:39.664Z,0.08
2022-12-09T10:12:39.453Z,0.07
2022-12-09T10:13:39.746Z,0.09
2022-12-09T10:15:36.060Z,0.09
2022-12-09T10:16:36.079Z,0.11
2022-12-09T10:17:36.388Z,0.09
2022-12-09T10:18:36.213Z,0.11
2022-12-09T10:19:36.264Z,0.14
2022-12-09T10:20:36.096Z,0.12
2022-12-09T10:21:36.124Z,0.14
2022-12-09T10:22:36.090Z,0.12
2022-12-09T10:23:36.077Z,0.09
2022-12-09T10:24:39.855Z,0.09
2022-12-09T10:25:36.002Z,0.11
2022-12-09T10:26:36.234Z,0.08
2022-12-09T10:27:35.868Z,0.08
2022-12-09T10:28:35.894Z,0.09
2022-12-09T10:29:36.250Z,0.11
2022-12-09T10:30:43.638Z,0.08
2022-12-09T10:31:36.873Z,0.08
2022-12-09T10:32:35.887Z,0.07
2022-12-09T10:33:36.220Z,0.08
2022-12-09T10:34:35.874Z,0.07
2022-12-09T10:35:35.897Z,0.07
2022-12-09T10:36:36.752Z,0.05
2022-12-09T10:37:36.119Z,0.08
2022-12-09T10:38:35.779Z,0.08
2022-12-09T10:39:35.780Z,0.09
2022-12-09T10:40:35.697Z,0.08
2022-12-09T10:41:35.736Z,0.09
2022-12-09T10:42:36.112Z,0.07
2022-12-09T10:43:36.366Z,0.09
2022-12-09T10:44:35.607Z,0.08
2022-12-09T10:46:15.141Z,0.08
2022-12-09T10:46:36.643Z,0.07
2022-12-09T10:47:35.798Z,0.02
2022-12-09T10:48:36.518Z,-0.03
2022-12-09T10:49:35.908Z,-0.01
2022-12-09T10:50:35.743Z,0.00
2022-12-09T10:51:35.729Z,0.04
2022-12-09T10:52:35.643Z,0.04
2022-12-09T10:53:36.050Z,0.07
2022-12-09T10:54:35.780Z,0.09
2022-12-09T10:55:35.719Z,0.09
2022-12-09T10:56:35.833Z,0.11
2022-12-09T10:57:35.534Z,0.15
2022-12-09T10:58:35.922Z,0.15
2022-12-09T10:59:35.498Z,0.12
2022-12-09T11:00:35.901Z,0.12
2022-12-09T11:01:35.590Z,0.11
2022-12-09T11:02:35.804Z,0.08
2022-12-09T11:03:35.583Z,0.08
2022-12-09T11:04:36.133Z,0.08
2022-12-09T11:05:35.759Z,0.09
2022-12-09T11:06:35.596Z,0.09
2022-12-09T11:07:35.563Z,0.09
2022-12-09T11:08:35.593Z,0.12
2022-12-09T11:09:35.751Z,0.12
2022-12-09T11:10:35.531Z,0.14
2022-12-09T11:11:35.610Z,0.12
2022-12-09T11:12:40.462Z,0.11
2022-12-09T11:13:36.512Z,0.09
2022-12-09T11:14:35.871Z,0.11
2022-12-09T11:15:35.400Z,0.09
2022-12-09T11:16:35.469Z,0.09
2022-12-09T11:17:36.051Z,0.08
2022-12-09T11:18:35.722Z,0.05
2022-12-09T11:19:35.389Z,0.05
2022-12-09T11:20:35.582Z,0.07
2022-12-09T11:21:35.760Z,0.08
2022-12-09T11:22:35.656Z,0.09
2022-12-09T11:23:35.649Z,0.08
2022-12-09T11:24:35.417Z,0.09
2022-12-09T11:25:35.272Z,0.08
2022-12-09T11:26:35.203Z,0.07
2022-12-09T11:27:35.465Z,0.05
2022-12-09T11:28:35.315Z,0.04
2022-12-09T11:29:35.665Z,0.07
2022-12-09T11:30:35.648Z,0.11
2022-12-09T11:31:35.501Z,0.09
2022-12-09T11:32:35.673Z,0.05
2022-12-09T11:33:35.713Z,0.05
2022-12-09T11:34:35.198Z,0.04
2022-12-09T11:35:35.277Z,0.04
2022-12-09T11:36:37.026Z,0.07
2022-12-09T11:37:36.044Z,0.07
2022-12-09T11:38:35.078Z,0.05
2022-12-09T11:39:35.024Z,0.07
2022-12-09T11:40:35.026Z,0.07
2022-12-09T11:41:35.004Z,0.11
2022-12-09T11:42:34.994Z,0.11
2022-12-09T11:43:35.036Z,0.14
2022-12-09T11:44:34.984Z,0.12
2022-12-09T11:45:34.965Z,0.14
2022-12-09T11:46:35.004Z,0.15
2022-12-09T11:47:57.167Z,0.12
2022-12-09T11:48:41.643Z,0.12
2022-12-09T11:49:35.915Z,0.12
2022-12-09T11:50:34.953Z,0.14
2022-12-09T11:51:35.103Z,0.15
2022-12-09T11:52:34.889Z,0.15
2022-12-09T11:53:34.904Z,0.14
2022-12-09T11:54:34.892Z,0.15
2022-12-09T11:55:34.856Z,0.17
2022-12-09T11:56:34.868Z,0.18
2022-12-09T11:57:34.834Z,0.18
2022-12-09T11:58:34.864Z,0.20
2022-12-09T11:59:38.046Z,0.17
2022-12-09T12:00:34.815Z,0.17
2022-12-09T12:01:34.949Z,0.15
2022-12-09T12:02:34.789Z,0.15
2022-12-09T12:03:34.809Z,0.17
2022-12-09T12:04:34.806Z,0.18
2022-12-09T12:05:34.753Z,0.18
2022-12-09T12:06:34.739Z,0.15
2022-12-09T12:07:34.723Z,0.14
2022-12-09T12:08:34.848Z,0.17
2022-12-09T12:09:34.711Z,0.15
2022-12-09T12:10:34.727Z,0.17
2022-12-09T12:11:34.679Z,0.15
2022-12-09T12:12:34.668Z,0.15
2022-12-09T12:13:34.659Z,0.20
2022-12-09T12:14:34.650Z,0.22
2022-12-09T12:15:34.643Z,0.20
2022-12-09T12:16:39.214Z,0.15
2022-12-09T12:17:35.738Z,0.14
2022-12-09T12:18:34.628Z,0.15
2022-12-09T12:19:34.598Z,0.17
2022-12-09T12:20:34.590Z,0.20
2022-12-09T12:21:34.570Z,0.25
2022-12-09T12:22:34.621Z,0.27
2022-12-09T12:23:34.565Z,0.26
2022-12-09T12:24:34.538Z,0.27
2022-12-09T12:25:34.518Z,0.26
2022-12-09T12:26:34.521Z,0.29
2022-12-09T12:27:34.517Z,0.26
2022-12-09T12:28:34.501Z,0.25
2022-12-09T12:29:34.490Z,0.23
2022-12-09T12:30:34.488Z,0.22
2022-12-09T12:31:34.499Z,0.23
2022-12-09T12:32:34.474Z,0.25
2022-12-09T12:34:07.694Z,0.25
2022-12-09T12:34:39.204Z,0.23
2022-12-09T12:35:35.717Z,0.25
2022-12-09T12:36:34.482Z,0.22
2022-12-09T12:37:34.412Z,0.25
2022-12-09T12:38:34.400Z,0.25
2022-12-09T12:39:34.438Z,0.26
2022-12-09T12:40:34.380Z,0.26
2022-12-09T12:41:34.355Z,0.27
2022-12-09T12:42:34.556Z,0.27
2022-12-09T12:43:34.345Z,0.27
2022-12-09T12:44:34.352Z,0.27
2022-12-09T12:45:34.374Z,0.29
2022-12-09T12:46:34.356Z,0.29
2022-12-09T12:47:34.314Z,0.26
2022-12-09T12:48:34.337Z,0.25
2022-12-09T12:49:34.295Z,0.22
2022-12-09T12:50:34.271Z,0.18
2022-12-09T12:51:34.256Z,0.20
2022-12-09T12:53:34.298Z,0.23
2022-12-09T12:54:34.275Z,0.25
2022-12-09T12:56:48.925Z,0.20
2022-12-09T12:57:48.916Z,0.12
2022-12-09T12:58:48.947Z,0.11
2022-12-09T12:59:48.919Z,0.08
2022-12-09T13:00:48.925Z,0.07
2022-12-09T13:01:48.879Z,0.08
2022-12-09T13:02:51.641Z,0.08